Time;durP1;ratioP1;P1;durP2;ratioP2;P2;SDS_P1;SDS_P2;PMS_P1;PMS_P2;Temp;Humidity;BMP_temperature;BMP_pressure;BME280_temperature;BME280_humidity;BME280_pressure;Samples;Min_cycle;Max_cycle;Signal;HPM_P1;HPM_P2
2022/11/09 07:21:04;;;;;;;1.45;0.65;;;14.30;99.90;;;;;;5095449;23;20144;-76
2022/11/09 07:23:39;;;;;;;1.05;0.77;;;14.30;99.90;;;;;;4886335;29;20056;-77
2022/11/09 07:26:06;;;;;;;2.03;0.80;;;14.30;99.90;;;;;;4882742;29;20092;-77
2022/11/09 07:28:33;;;;;;;1.75;0.85;;;14.40;99.90;;;;;;4885616;29;20056;-77
2022/11/09 07:31:00;;;;;;;0.98;0.70;;;14.40;99.90;;;;;;4885743;29;20075;-78
2022/11/09 07:33:29;;;;;;;1.20;0.80;;;14.40;99.90;;;;;;4887734;29;20055;-78
2022/11/09 07:35:57;;;;;;;0.63;0.47;;;14.40;99.90;;;;;;4885605;29;20409;-76
2022/11/09 07:38:25;;;;;;;1.20;0.65;;;14.40;99.90;;;;;;4888259;29;20045;-78
2022/11/09 07:40:51;;;;;;;1.42;0.70;;;14.40;99.90;;;;;;4895337;29;20040;-78
2022/11/09 07:43:19;;;;;;;2.05;0.73;;;14.50;99.90;;;;;;4880501;29;20080;-76
2022/11/09 07:45:46;;;;;;;1.70;0.50;;;14.50;99.90;;;;;;4891552;29;20076;-77
2022/11/09 07:48:13;;;;;;;0.88;0.50;;;14.50;99.90;;;;;;4891596;29;20048;-78
2022/11/09 07:50:40;;;;;;;0.47;0.47;;;14.60;99.90;;;;;;4897019;29;20060;-77
2022/11/09 07:53:09;;;;;;;1.58;0.73;;;14.60;99.90;;;;;;4894146;29;20060;-76
2022/11/09 07:55:36;;;;;;;1.17;0.80;;;14.60;99.90;;;;;;4891170;29;20052;-77
2022/11/09 07:58:09;;;;;;;0.60;0.47;;;14.70;99.90;;;;;;4890030;29;20153;-77
2022/11/09 08:00:37;;;;;;;1.52;0.60;;;14.70;99.90;;;;;;4888798;29;20053;-76
2022/11/09 08:03:05;;;;;;;3.65;0.60;;;14.70;99.90;;;;;;4884928;29;20050;-77
2022/11/09 08:05:32;;;;;;;1.05;0.50;;;14.80;99.90;;;;;;4888387;29;20057;-77
2022/11/09 08:08:02;;;;;;;1.75;1.30;;;14.80;99.90;;;;;;4892936;29;20052;-77
2022/11/09 08:10:30;;;;;;;1.65;0.80;;;14.90;99.90;;;;;;4891928;29;20332;-76
2022/11/09 08:13:00;;;;;;;1.90;0.60;;;14.90;99.90;;;;;;4889176;29;20060;-77
2022/11/09 08:15:27;;;;;;;1.75;0.68;;;14.90;99.90;;;;;;4891057;29;20052;-78
2022/11/09 08:17:58;;;;;;;1.35;0.73;;;14.90;99.90;;;;;;4890521;29;20395;-77
2022/11/09 08:20:25;;;;;;;2.47;0.68;;;15.00;99.90;;;;;;4890232;29;20071;-78
2022/11/09 08:22:52;;;;;;;0.95;0.60;;;15.10;99.90;;;;;;4890021;29;20068;-77
2022/11/09 08:25:18;;;;;;;2.28;1.02;;;15.10;99.90;;;;;;4906236;29;20052;-77
2022/11/09 08:27:45;;;;;;;0.90;0.70;;;15.10;99.90;;;;;;4889388;29;20060;-77
2022/11/09 08:30:18;;;;;;;2.13;0.68;;;15.10;99.90;;;;;;4885790;29;20060;-77
2022/11/09 08:32:45;;;;;;;1.48;0.70;;;15.10;99.90;;;;;;4882669;29;20057;-77
2022/11/09 08:35:16;;;;;;;1.52;0.60;;;15.10;99.90;;;;;;4879784;29;20049;-77
2022/11/09 08:37:45;;;;;;;1.25;0.63;;;15.20;99.90;;;;;;4880907;29;20579;-77
2022/11/09 08:40:14;;;;;;;2.15;0.90;;;15.20;99.90;;;;;;4890636;29;20076;-77
2022/11/09 08:42:41;;;;;;;1.30;0.57;;;15.20;99.90;;;;;;4901361;29;20060;-77
2022/11/09 08:45:09;;;;;;;2.28;0.70;;;15.20;99.90;;;;;;4885350;29;20057;-77
2022/11/09 08:47:36;;;;;;;0.60;0.57;;;15.30;99.90;;;;;;4890267;29;20048;-77
2022/11/09 08:50:03;;;;;;;2.22;0.70;;;15.30;99.90;;;;;;4886998;29;20490;-78
2022/11/09 08:52:30;;;;;;;1.35;0.90;;;15.30;99.90;;;;;;4886355;29;20052;-78
2022/11/09 08:54:57;;;;;;;2.05;1.00;;;15.40;99.90;;;;;;4884254;29;20055;-77
2022/11/09 08:57:24;;;;;;;1.08;0.85;;;15.40;99.90;;;;;;4885264;29;20522;-78
2022/11/09 08:59:51;;;;;;;1.33;0.90;;;15.40;99.90;;;;;;4879905;29;20644;-77
2022/11/09 09:02:17;;;;;;;0.93;0.57;;;15.40;99.90;;;;;;4888059;29;20059;-77
2022/11/09 09:04:44;;;;;;;2.13;1.05;;;15.50;99.90;;;;;;4891356;29;20115;-77
2022/11/09 09:07:12;;;;;;;0.95;0.60;;;15.50;99.90;;;;;;4887622;29;20056;-78
2022/11/09 09:09:39;;;;;;;0.95;0.77;;;15.50;99.90;;;;;;4890006;29;20083;-77
2022/11/09 09:12:07;;;;;;;0.90;0.60;;;15.60;99.90;;;;;;4889324;29;20462;-77
2022/11/09 09:14:35;;;;;;;0.60;0.60;;;15.60;99.90;;;;;;4888174;29;20045;-77
2022/11/09 09:17:02;;;;;;;0.80;0.40;;;15.60;99.90;;;;;;4887407;29;20421;-77
2022/11/09 09:19:29;;;;;;;0.82;0.60;;;15.60;99.90;;;;;;4887988;29;20049;-77
2022/11/09 09:21:55;;;;;;;1.50;0.50;;;15.70;99.90;;;;;;4894403;29;20062;-77
2022/11/09 09:24:22;;;;;;;1.63;0.70;;;15.70;99.90;;;;;;4890206;29;20498;-78
2022/11/09 09:26:49;;;;;;;0.70;0.68;;;15.70;99.90;;;;;;4893126;29;20048;-78
2022/11/09 09:29:16;;;;;;;0.75;0.50;;;15.80;99.90;;;;;;4892231;29;20044;-77
2022/11/09 09:31:42;;;;;;;2.13;0.50;;;15.80;99.90;;;;;;4895928;29;20049;-77
2022/11/09 09:34:10;;;;;;;1.63;0.52;;;15.80;99.90;;;;;;4889122;29;20059;-77
2022/11/09 09:36:37;;;;;;;0.45;0.40;;;15.90;99.90;;;;;;4891072;29;20045;-76
2022/11/09 09:39:11;;;;;;;2.55;0.60;;;15.90;99.90;;;;;;4890352;29;20498;-77
2022/11/09 09:41:54;;;;;;;0.77;0.40;;;15.80;99.90;;;;;;4888835;29;20076;-76
2022/11/09 09:44:49;;;;;;;1.23;0.50;;;15.80;99.90;;;;;;4889338;29;20111;-78
2022/11/09 09:47:37;;;;;;;0.43;0.40;;;15.80;99.90;;;;;;4889542;29;20049;-76
2022/11/09 09:50:17;;;;;;;1.08;0.63;;;15.80;99.90;;;;;;4885390;29;20045;-77
2022/11/09 09:53:01;;;;;;;0.55;0.55;;;15.90;99.90;;;;;;4884963;29;20402;-77
2022/11/09 09:56:20;;;;;;;1.45;0.52;;;15.90;99.90;;;;;;4903110;29;20049;-77
2022/11/09 09:59:09;;;;;;;0.93;0.50;;;15.90;99.90;;;;;;4886884;29;20056;-78
2022/11/09 10:01:39;;;;;;;1.17;0.60;;;15.90;99.90;;;;;;4871364;29;20049;-77
2022/11/09 10:04:20;;;;;;;3.30;0.80;;;15.80;99.90;;;;;;4881622;29;20049;-77
2022/11/09 10:06:47;;;;;;;2.13;0.70;;;15.80;99.90;;;;;;4891627;29;20052;-78
2022/11/09 10:09:27;;;;;;;0.45;0.45;;;15.80;99.90;;;;;;4889890;29;20049;-77
2022/11/09 10:11:59;;;;;;;0.52;0.43;;;15.70;99.90;;;;;;4891067;29;20041;-77
2022/11/09 10:15:03;;;;;;;1.42;0.70;;;15.70;99.90;;;;;;4902535;29;20053;-77
2022/11/09 10:17:33;;;;;;;1.88;0.52;;;15.70;99.90;;;;;;4904303;29;20055;-77
2022/11/09 10:20:46;;;;;;;1.17;0.63;;;15.70;99.90;;;;;;4889571;29;20051;-77
2022/11/09 10:23:47;;;;;;;0.68;0.63;;;15.70;99.90;;;;;;4891649;29;20055;-77
2022/11/09 10:26:18;;;;;;;1.13;0.60;;;15.70;99.90;;;;;;4886596;29;20057;-77
2022/11/09 10:28:50;;;;;;;0.95;0.60;;;15.60;99.90;;;;;;4891517;29;20056;-77
2022/11/09 10:31:39;;;;;;;1.50;0.70;;;15.60;99.90;;;;;;4889678;29;20113;-77
2022/11/09 10:34:19;;;;;;;1.47;0.53;;;15.60;99.90;;;;;;4886724;29;20055;-77
2022/11/09 10:37:15;;;;;;;0.75;0.50;;;15.50;99.90;;;;;;4887827;29;20049;-78
2022/11/09 10:39:49;;;;;;;1.92;0.70;;;15.50;99.90;;;;;;4891722;29;20044;-78
2022/11/09 10:42:16;;;;;;;0.70;0.50;;;15.60;99.90;;;;;;4890251;29;20058;-78
2022/11/09 10:44:42;;;;;;;3.67;0.47;;;15.60;99.90;;;;;;4885058;29;20055;-78
2022/11/09 10:47:15;;;;;;;1.25;0.63;;;15.60;99.90;;;;;;4888301;29;20056;-78
2022/11/09 10:49:42;;;;;;;0.80;0.43;;;15.70;99.90;;;;;;4901453;29;20503;-78
2022/11/09 10:52:38;;;;;;;1.55;0.50;;;15.70;99.90;;;;;;4886725;29;20050;-78
2022/11/09 10:55:27;;;;;;;1.38;0.60;;;15.70;99.90;;;;;;4884347;29;20045;-78
2022/11/09 10:57:59;;;;;;;0.45;0.35;;;15.80;99.90;;;;;;4886673;29;20107;-78
2022/11/09 11:00:27;;;;;;;3.03;0.75;;;15.80;99.90;;;;;;4882593;29;20498;-78
2022/11/09 11:02:54;;;;;;;1.67;0.50;;;15.80;99.90;;;;;;4889189;29;20059;-78
2022/11/09 11:05:27;;;;;;;0.35;0.35;;;15.80;99.90;;;;;;4891715;29;20471;-78
2022/11/09 11:07:55;;;;;;;0.40;0.40;;;15.80;99.90;;;;;;4896358;29;20048;-78
2022/11/09 11:10:22;;;;;;;0.57;0.43;;;15.80;99.90;;;;;;4891349;29;20052;-78
2022/11/09 11:13:04;;;;;;;1.38;0.68;;;15.80;99.90;;;;;;4874268;29;20051;-77
2022/11/09 11:15:38;;;;;;;0.93;0.50;;;15.90;99.90;;;;;;4871216;29;20052;-77
2022/11/09 11:18:19;;;;;;;0.88;0.40;;;15.90;99.90;;;;;;4870330;29;20056;-78
2022/11/09 11:20:46;;;;;;;0.40;0.40;;;15.90;99.90;;;;;;4894497;29;20136;-78
2022/11/09 11:23:19;;;;;;;1.95;0.60;;;15.90;99.90;;;;;;4864327;29;20045;-78
2022/11/09 11:25:52;;;;;;;0.90;0.40;;;15.90;99.90;;;;;;4874313;29;20160;-77
2022/11/09 11:28:45;;;;;;;0.60;0.50;;;15.90;99.90;;;;;;4870072;29;20054;-78
2022/11/09 11:31:17;;;;;;;1.20;0.52;;;15.90;99.90;;;;;;4882404;29;20064;-78
2022/11/09 11:33:44;;;;;;;0.77;0.60;;;15.90;99.90;;;;;;4876404;29;20136;-77
2022/11/09 11:36:25;;;;;;;0.57;0.40;;;15.90;99.90;;;;;;4864143;29;20060;-76
2022/11/09 11:39:09;;;;;;;1.02;0.65;;;15.90;99.90;;;;;;4874766;29;20132;-77
2022/11/09 11:41:39;;;;;;;2.00;0.40;;;15.90;99.90;;;;;;4866851;29;20071;-78
2022/11/09 11:44:24;;;;;;;0.68;0.35;;;15.90;99.90;;;;;;4865363;29;20053;-77
2022/11/09 11:47:01;;;;;;;0.55;0.40;;;15.90;99.90;;;;;;4874155;29;20075;-78
2022/11/09 11:49:51;;;;;;;0.90;0.47;;;15.90;99.90;;;;;;4872858;29;20423;-78
2022/11/09 11:52:44;;;;;;;1.20;0.80;;;15.90;99.90;;;;;;4871274;29;20471;-77
2022/11/09 11:55:44;;;;;;;1.90;0.88;;;15.90;99.90;;;;;;4868677;29;20060;-77
2022/11/09 11:58:36;;;;;;;1.50;0.80;;;15.90;99.90;;;;;;4861080;29;20049;-77
2022/11/09 12:01:20;;;;;;;4.95;1.17;;;15.80;99.90;;;;;;4862811;29;20065;-77
2022/11/09 12:03:50;;;;;;;3.53;1.00;;;15.80;99.90;;;;;;4867918;29;20071;-78
2022/11/09 12:06:33;;;;;;;3.25;1.08;;;15.80;99.90;;;;;;4867058;29;20066;-78
2022/11/09 12:09:15;;;;;;;3.17;0.98;;;15.70;99.90;;;;;;4879603;29;20118;-78
2022/11/09 12:12:06;;;;;;;0.90;0.70;;;15.70;99.90;;;;;;4871256;29;20053;-78
2022/11/09 12:14:55;;;;;;;2.00;0.90;;;15.60;99.90;;;;;;4868913;29;20048;-78
2022/11/09 12:17:42;;;;;;;1.17;0.80;;;15.60;99.90;;;;;;4886957;29;20068;-78
2022/11/09 12:20:19;;;;;;;4.10;2.00;;;15.60;99.90;;;;;;4882413;29;20063;-78
2022/11/09 12:23:07;;;;;;;2.97;1.20;;;15.50;99.90;;;;;;4873505;29;20124;-77
2022/11/09 12:25:54;;;;;;;1.33;0.80;;;15.50;99.90;;;;;;4871559;29;20056;-78
2022/11/09 12:28:54;;;;;;;1.30;0.70;;;15.50;99.90;;;;;;4866138;29;20056;-78
2022/11/09 12:31:50;;;;;;;1.58;1.15;;;15.50;99.90;;;;;;4863266;29;20406;-78
2022/11/09 12:34:28;;;;;;;2.15;1.13;;;15.50;99.90;;;;;;4868058;29;20049;-78
2022/11/09 12:37:03;;;;;;;2.47;1.50;;;15.50;99.90;;;;;;4870923;29;20080;-78
2022/11/09 12:39:42;;;;;;;4.13;1.38;;;15.50;99.90;;;;;;4871284;29;20133;-78
2022/11/09 12:42:17;;;;;;;3.10;1.30;;;15.50;99.90;;;;;;4870931;29;20044;-78
2022/11/09 12:45:00;;;;;;;1.27;1.00;;;15.40;99.90;;;;;;4873857;29;20060;-77
2022/11/09 12:47:33;;;;;;;1.83;1.40;;;15.40;99.90;;;;;;4870272;29;20048;-78
2022/11/09 12:50:00;;;;;;;2.20;1.50;;;15.40;99.90;;;;;;4873326;29;20127;-79
2022/11/09 12:52:28;;;;;;;3.08;1.60;;;15.40;99.90;;;;;;4882156;29;20079;-77
2022/11/09 12:54:58;;;;;;;2.85;1.60;;;15.40;99.90;;;;;;4875701;29;20049;-78
2022/11/09 12:57:28;;;;;;;4.22;2.35;;;15.40;99.90;;;;;;4874726;29;20132;-77
2022/11/09 12:59:56;;;;;;;;;;;15.40;99.90;;;;;;4873603;29;20073;-78
2022/11/09 13:02:51;;;;;;;2.45;1.75;;;15.40;99.90;;;;;;4876411;29;19919;-78
2022/11/09 13:05:37;;;;;;;1.27;1.10;;;15.40;99.90;;;;;;4872271;29;20097;-78
2022/11/09 13:08:13;;;;;;;1.80;1.17;;;15.30;99.90;;;;;;4868502;29;20061;-78
2022/11/09 13:10:40;;;;;;;14.25;3.60;;;15.30;99.90;;;;;;4871409;29;21620;-78
2022/11/09 13:13:10;;;;;;;8.95;3.03;;;15.30;99.90;;;;;;4873337;29;20512;-78
2022/11/09 13:15:38;;;;;;;17.67;5.70;;;15.30;99.90;;;;;;4867743;29;20403;-78
2022/11/09 13:18:22;;;;;;;3.90;1.67;;;15.30;99.90;;;;;;4872810;29;20037;-77
2022/11/09 13:20:50;;;;;;;4.05;2.28;;;15.30;99.90;;;;;;4870786;29;20045;-77
2022/11/09 13:23:28;;;;;;;6.10;1.70;;;15.30;99.90;;;;;;4869055;29;20041;-77
2022/11/09 13:26:30;;;;;;;17.27;4.38;;;15.30;99.90;;;;;;4871150;29;20060;-78
2022/11/09 13:29:07;;;;;;;3.42;1.85;;;15.30;99.90;;;;;;4866957;29;20052;-77
2022/11/09 13:32:04;;;;;;;5.18;1.90;;;15.30;99.90;;;;;;4867229;29;20053;-77
2022/11/09 13:34:58;;;;;;;4.93;1.90;;;15.30;99.90;;;;;;4872549;29;20064;-78
2022/11/09 13:37:55;;;;;;;8.48;2.42;;;15.30;99.90;;;;;;4865858;29;20068;-77
2022/11/09 13:40:31;;;;;;;3.45;2.30;;;15.30;99.90;;;;;;4864819;29;20041;-78
2022/11/09 13:43:09;;;;;;;5.75;2.67;;;15.20;99.90;;;;;;4873544;29;20045;-77
2022/11/09 13:45:52;;;;;;;5.07;2.25;;;15.20;99.90;;;;;;4873066;29;20052;-77
2022/11/09 13:48:44;;;;;;;2.85;1.90;;;15.20;99.90;;;;;;4868991;29;20055;-78
2022/11/09 13:51:34;;;;;;;3.70;2.08;;;15.20;99.90;;;;;;4869641;29;20049;-77
2022/11/09 13:54:19;;;;;;;7.38;2.60;;;15.20;99.90;;;;;;4866574;29;20059;-77
2022/11/09 13:56:47;;;;;;;6.35;2.35;;;15.20;99.90;;;;;;4882772;29;20037;-78
2022/11/09 13:59:29;;;;;;;5.63;2.45;;;15.20;99.90;;;;;;4866186;29;20046;-78
2022/11/09 14:02:01;;;;;;;5.63;2.90;;;15.20;99.90;;;;;;4861952;29;20041;-78
2022/11/09 14:04:29;;;;;;;5.45;2.58;;;15.10;99.90;;;;;;4862779;29;20060;-78
2022/11/09 14:07:05;;;;;;;7.28;2.85;;;15.10;99.90;;;;;;4875566;29;20053;-78
2022/11/09 14:10:08;;;;;;;6.13;3.28;;;15.10;99.90;;;;;;4870727;29;20049;-77
2022/11/09 14:12:41;;;;;;;8.50;3.63;;;15.10;99.90;;;;;;4875915;29;20057;-78
2022/11/09 14:15:27;;;;;;;12.50;7.22;;;15.00;99.90;;;;;;4869985;29;20140;-78
2022/11/09 14:18:21;;;;;;;9.77;7.13;;;15.00;99.90;;;;;;4880301;29;20049;-78
2022/11/09 14:21:15;;;;;;;4.50;2.90;;;15.00;99.90;;;;;;4869110;29;20373;-77
2022/11/09 14:23:42;;;;;;;1.63;0.80;;;15.00;99.90;;;;;;4873817;29;20063;-78
2022/11/09 14:26:17;;;;;;;2.88;1.02;;;14.90;99.90;;;;;;4868467;29;20226;-77
2022/11/09 14:28:44;;;;;;;2.72;0.90;;;14.90;99.90;;;;;;4878956;29;20156;-78
2022/11/09 14:31:26;;;;;;;2.55;1.55;;;14.90;99.90;;;;;;4867111;29;20498;-77
2022/11/09 14:34:01;;;;;;;1.77;1.15;;;14.90;99.90;;;;;;4866597;29;20081;-77
2022/11/09 14:36:30;;;;;;;4.00;0.80;;;14.90;99.90;;;;;;4874460;29;20140;-78
2022/11/09 14:39:03;;;;;;;3.60;1.35;;;14.80;99.90;;;;;;4861320;29;20414;-77
2022/11/09 14:41:30;;;;;;;5.25;2.38;;;14.80;99.90;;;;;;4865506;29;20055;-78
2022/11/09 14:43:59;;;;;;;3.13;1.95;;;14.80;99.90;;;;;;4871202;29;20052;-78
2022/11/09 14:46:29;;;;;;;4.65;2.78;;;14.80;99.90;;;;;;4875861;29;20076;-77
2022/11/09 14:49:01;;;;;;;7.63;4.22;;;14.80;99.90;;;;;;4868073;29;20088;-78
2022/11/09 14:51:36;;;;;;;7.85;3.65;;;14.70;99.90;;;;;;4867413;29;20530;-78
2022/11/09 14:54:10;;;;;;;9.65;3.78;;;14.70;99.90;;;;;;4902638;29;20053;-78
2022/11/09 14:56:38;;;;;;;5.15;2.90;;;14.70;99.90;;;;;;4869816;29;20430;-78
2022/11/09 14:59:07;;;;;;;2.70;1.98;;;14.70;99.90;;;;;;4862461;29;20045;-78
2022/11/09 15:01:33;;;;;;;3.05;1.05;;;14.60;99.90;;;;;;4867942;29;20045;-78
2022/11/09 15:04:09;;;;;;;1.83;0.90;;;14.60;99.90;;;;;;4867877;29;20112;-78
2022/11/09 15:06:48;;;;;;;4.10;0.88;;;14.50;99.90;;;;;;4870518;29;20502;-78
2022/11/09 15:09:18;;;;;;;1.45;0.82;;;14.60;99.90;;;;;;4872807;29;20127;-78
2022/11/09 15:11:46;;;;;;;1.20;0.70;;;14.50;99.90;;;;;;4870890;29;20048;-78
2022/11/09 15:14:14;;;;;;;1.20;1.00;;;14.50;99.90;;;;;;4864624;29;20041;-78
2022/11/09 15:16:41;;;;;;;2.08;0.90;;;14.40;99.90;;;;;;4868445;29;20053;-79
2022/11/09 15:19:27;;;;;;;1.10;0.90;;;14.40;99.90;;;;;;4872165;29;20056;-78
2022/11/09 15:21:54;;;;;;;1.63;0.80;;;14.40;99.90;;;;;;4870671;29;20045;-78
2022/11/09 15:24:23;;;;;;;2.58;1.10;;;14.40;99.90;;;;;;4873504;29;20522;-78
2022/11/09 15:26:51;;;;;;;3.58;1.25;;;14.40;99.90;;;;;;4868292;29;20080;-79
2022/11/09 15:29:33;;;;;;;1.25;0.77;;;14.40;99.90;;;;;;4869316;29;20060;-77
2022/11/09 15:32:20;;;;;;;2.28;0.90;;;14.40;99.90;;;;;;4869960;29;20045;-78
2022/11/09 15:34:50;;;;;;;2.00;1.08;;;14.30;99.90;;;;;;4897050;29;20053;-78
2022/11/09 15:37:25;;;;;;;1.60;1.10;;;14.30;99.90;;;;;;4873900;29;20053;-78
2022/11/09 15:39:52;;;;;;;1.77;1.35;;;14.30;99.90;;;;;;4876070;29;20065;-79
2022/11/09 15:42:19;;;;;;;1.98;1.05;;;14.30;99.90;;;;;;4873611;29;20056;-78
2022/11/09 15:44:51;;;;;;;1.67;0.95;;;14.30;99.90;;;;;;4867655;29;20063;-78
2022/11/09 15:47:31;;;;;;;1.00;0.90;;;14.20;99.90;;;;;;4875319;29;20117;-78
2022/11/09 15:49:59;;;;;;;4.10;2.63;;;14.30;99.90;;;;;;4881948;29;20144;-79
2022/11/09 15:52:27;;;;;;;3.83;3.00;;;14.30;99.90;;;;;;4871141;29;20136;-79
2022/11/09 15:54:54;;;;;;;3.97;3.03;;;14.20;99.90;;;;;;4868801;29;20136;-79
2022/11/09 15:57:21;;;;;;;4.18;2.30;;;14.30;99.90;;;;;;4866533;29;20052;-80
2022/11/09 15:59:50;;;;;;;2.88;1.73;;;14.20;99.90;;;;;;4866842;29;20151;-78
2022/11/09 16:02:20;;;;;;;3.25;2.33;;;14.20;99.90;;;;;;4874048;29;20037;-77
2022/11/09 16:04:46;;;;;;;4.28;2.25;;;14.20;99.90;;;;;;4867195;29;20045;-78
2022/11/09 16:07:15;;;;;;;4.72;2.58;;;14.20;99.90;;;;;;4870857;29;20064;-79
2022/11/09 16:09:42;;;;;;;3.75;2.22;;;14.20;99.90;;;;;;4868745;29;20044;-79
2022/11/09 16:12:09;;;;;;;2.95;1.70;;;14.10;99.90;;;;;;4869615;29;20165;-79
2022/11/09 16:14:36;;;;;;;4.25;1.65;;;14.10;99.90;;;;;;4872614;29;20129;-79
2022/11/09 16:17:03;;;;;;;3.95;1.63;;;14.10;99.90;;;;;;4873511;29;20041;-78
2022/11/09 16:19:30;;;;;;;1.67;1.30;;;14.00;99.90;;;;;;4870767;29;20067;-79
2022/11/09 16:21:57;;;;;;;2.40;1.70;;;14.00;99.90;;;;;;4871316;29;20411;-77
2022/11/09 16:24:24;;;;;;;2.33;1.63;;;13.90;99.90;;;;;;4875048;29;20063;-78
2022/11/09 16:26:52;;;;;;;1.27;1.10;;;13.90;99.90;;;;;;4876686;29;20498;-78
2022/11/09 16:29:22;;;;;;;6.10;1.50;;;13.90;99.90;;;;;;4870379;29;20521;-77
2022/11/09 16:31:48;;;;;;;3.05;1.80;;;13.90;99.90;;;;;;4876893;29;20060;-78
2022/11/09 16:34:18;;;;;;;7.07;6.33;;;13.90;99.90;;;;;;4873872;29;20572;-78
2022/11/09 16:36:46;;;;;;;4.57;2.50;;;13.80;99.90;;;;;;4877463;29;20317;-79
2022/11/09 16:39:21;;;;;;;5.00;3.03;;;13.80;99.90;;;;;;4873855;29;20037;-79
2022/11/09 16:41:49;;;;;;;3.60;3.05;;;13.80;99.90;;;;;;4871587;29;20059;-79
2022/11/09 16:44:20;;;;;;;2.42;1.35;;;13.70;99.90;;;;;;4866987;29;20050;-79
2022/11/09 16:46:47;;;;;;;3.65;1.73;;;13.70;99.90;;;;;;4872086;29;20061;-79
2022/11/09 16:49:14;;;;;;;4.72;2.88;;;13.70;99.90;;;;;;4874515;29;20045;-77
2022/11/09 16:51:41;;;;;;;5.70;3.50;;;13.70;99.90;;;;;;4873037;29;20499;-79
2022/11/09 16:54:07;;;;;;;7.50;4.30;;;13.70;99.90;;;;;;4872610;29;20060;-79
2022/11/09 16:56:34;;;;;;;8.27;5.28;;;13.70;99.90;;;;;;4872827;29;20054;-78
2022/11/09 16:59:01;;;;;;;9.05;3.67;;;13.70;99.90;;;;;;4873775;29;20045;-78
2022/11/09 17:01:27;;;;;;;5.20;2.97;;;13.70;99.90;;;;;;4869436;29;20045;-79
2022/11/09 17:03:56;;;;;;;2.15;1.35;;;13.70;99.90;;;;;;4870215;29;20395;-78
2022/11/09 17:06:23;;;;;;;1.90;1.23;;;13.70;99.90;;;;;;4873381;29;20045;-78
2022/11/09 17:08:53;;;;;;;2.70;1.40;;;13.60;99.90;;;;;;4874365;29;20065;-78
2022/11/09 17:11:20;;;;;;;2.78;2.38;;;13.60;99.90;;;;;;4876789;29;20049;-78
2022/11/09 17:13:52;;;;;;;15.30;12.98;;;13.60;99.90;;;;;;4878848;29;20049;-77
2022/11/09 17:16:19;;;;;;;7.63;6.43;;;13.60;99.90;;;;;;4872785;29;20109;-78
2022/11/09 17:18:46;;;;;;;3.53;1.83;;;13.70;99.90;;;;;;4871180;29;20056;-77
2022/11/09 17:21:13;;;;;;;2.38;1.40;;;13.60;99.90;;;;;;4872455;29;20060;-78
2022/11/09 17:23:41;;;;;;;2.33;1.50;;;13.60;99.90;;;;;;4877009;29;20081;-78
2022/11/09 17:26:08;;;;;;;2.70;1.80;;;13.60;99.90;;;;;;4876033;29;20068;-78
2022/11/09 17:28:36;;;;;;;5.05;2.78;;;13.60;99.90;;;;;;4874748;29;20500;-79
2022/11/09 17:31:14;;;;;;;5.10;3.22;;;13.60;99.90;;;;;;4876726;29;20045;-77
2022/11/09 17:33:42;;;;;;;3.20;2.17;;;13.60;99.90;;;;;;4874737;29;20057;-77
2022/11/09 17:36:11;;;;;;;2.72;1.90;;;13.60;99.90;;;;;;4873118;29;20064;-79
2022/11/09 17:38:39;;;;;;;3.22;2.13;;;13.60;99.90;;;;;;4901245;29;20065;-78
2022/11/09 17:41:11;;;;;;;1.73;1.30;;;13.60;99.90;;;;;;4874325;29;20045;-79
2022/11/09 17:43:39;;;;;;;5.05;1.10;;;13.50;99.90;;;;;;4871269;29;20138;-79
2022/11/09 17:46:12;;;;;;;3.20;1.90;;;13.50;99.90;;;;;;4873009;29;20064;-79
2022/11/09 17:48:41;;;;;;;4.40;2.28;;;13.50;99.90;;;;;;4872614;29;20049;-78
2022/11/09 17:51:08;;;;;;;4.55;2.05;;;13.50;99.90;;;;;;4900244;29;20045;-78
2022/11/09 17:53:36;;;;;;;2.60;1.40;;;13.50;99.90;;;;;;4869957;29;20044;-79
2022/11/09 17:56:03;;;;;;;2.53;1.27;;;13.50;99.90;;;;;;4875819;29;20063;-78
2022/11/09 17:58:30;;;;;;;2.38;1.20;;;13.50;99.90;;;;;;4874169;29;20435;-78
2022/11/09 18:01:15;;;;;;;4.40;1.77;;;13.40;99.90;;;;;;4875423;29;20388;-78
2022/11/09 18:03:42;;;;;;;2.20;1.25;;;13.40;99.90;;;;;;4875923;29;20469;-78
2022/11/09 18:06:12;;;;;;;3.13;2.17;;;13.40;99.90;;;;;;4870785;29;20076;-77
2022/11/09 18:08:39;;;;;;;2.05;1.70;;;13.40;99.90;;;;;;4872067;29;20507;-77
2022/11/09 18:11:07;;;;;;;4.05;1.70;;;13.40;99.90;;;;;;4874734;29;20049;-78
2022/11/09 18:13:34;;;;;;;4.90;2.90;;;13.40;99.90;;;;;;4870502;29;20053;-78
2022/11/09 18:16:15;;;;;;;4.28;3.00;;;13.40;99.90;;;;;;4867700;29;20055;-78
2022/11/09 18:18:44;;;;;;;6.68;2.85;;;13.40;99.90;;;;;;4874044;29;20053;-79
2022/11/09 18:21:14;;;;;;;6.28;2.50;;;13.40;99.90;;;;;;4870423;29;20061;-77
2022/11/09 18:23:42;;;;;;;2.50;2.05;;;13.40;99.90;;;;;;4870007;29;20068;-77
2022/11/09 18:26:09;;;;;;;2.55;1.65;;;13.40;99.90;;;;;;4863938;29;20048;-79
2022/11/09 18:28:36;;;;;;;5.38;1.65;;;13.40;99.90;;;;;;4871320;29;20045;-80
2022/11/09 18:31:06;;;;;;;3.13;1.70;;;13.40;99.90;;;;;;4873095;29;20132;-77
2022/11/09 18:33:33;;;;;;;6.50;5.90;;;13.40;99.90;;;;;;4875442;29;20049;-79
2022/11/09 18:36:03;;;;;;;2.13;1.83;;;13.40;99.90;;;;;;4853077;29;20063;-78
2022/11/09 18:38:30;;;;;;;3.50;2.87;;;13.40;99.90;;;;;;4869240;29;20071;-79
2022/11/09 18:41:01;;;;;;;5.97;2.58;;;13.40;99.90;;;;;;4872112;29;20294;-78
2022/11/09 18:43:28;;;;;;;6.47;3.78;;;13.40;99.90;;;;;;4873662;29;20476;-78
2022/11/09 18:46:03;;;;;;;6.05;3.63;;;13.40;99.90;;;;;;4871877;29;20112;-79
2022/11/09 18:48:30;;;;;;;3.60;2.22;;;13.40;99.90;;;;;;4868602;29;20053;-79
2022/11/09 18:50:58;;;;;;;3.17;2.30;;;13.40;99.90;;;;;;4873223;29;20443;-78
2022/11/09 18:53:28;;;;;;;2.30;1.67;;;13.40;99.90;;;;;;4870642;29;20053;-78
2022/11/09 18:56:00;;;;;;;1.67;1.07;;;13.40;99.90;;;;;;4872498;29;20510;-78
2022/11/09 18:58:32;;;;;;;2.17;0.73;;;13.40;99.90;;;;;;4867681;29;20054;-78
2022/11/09 19:01:02;;;;;;;1.10;0.70;;;13.40;99.90;;;;;;4865085;29;20060;-78
2022/11/09 19:03:29;;;;;;;1.02;0.57;;;13.40;99.90;;;;;;4869435;29;20042;-77
2022/11/09 19:05:56;;;;;;;1.15;0.98;;;13.40;99.90;;;;;;4870716;29;20053;-78
2022/11/09 19:11:13;;;;;;;3.03;1.30;;;13.50;99.90;;;;;;4867437;29;20060;-78
2022/11/09 19:13:40;;;;;;;3.42;2.30;;;13.40;99.90;;;;;;4866809;29;20407;-78
2022/11/09 19:16:10;;;;;;;1.35;1.20;;;13.40;99.90;;;;;;4871041;29;20915;-79
2022/11/09 19:18:37;;;;;;;3.00;2.08;;;13.40;99.90;;;;;;4872552;29;20611;-79
2022/11/09 19:21:05;;;;;;;2.85;2.40;;;13.40;99.90;;;;;;4872688;29;20048;-79
2022/11/09 19:23:32;;;;;;;5.13;3.67;;;13.40;99.90;;;;;;4874708;29;20045;-79
2022/11/09 19:26:01;;;;;;;2.28;1.55;;;13.50;99.90;;;;;;4868593;29;20479;-78
2022/11/09 19:28:27;;;;;;;1.30;0.90;;;13.50;99.90;;;;;;4871783;29;20477;-79
2022/11/09 19:30:56;;;;;;;4.53;4.07;;;13.50;99.90;;;;;;4868077;29;20056;-77
2022/11/09 19:33:22;;;;;;;1.17;0.90;;;13.50;99.90;;;;;;4866239;29;20137;-79
2022/11/09 19:35:50;;;;;;;0.60;0.60;;;13.50;99.90;;;;;;4870971;29;20064;-78
2022/11/09 19:38:37;;;;;;;4.30;1.00;;;13.50;99.90;;;;;;4872819;29;20144;-78
2022/11/09 19:41:04;;;;;;;0.70;0.70;;;13.50;99.90;;;;;;4874089;29;20053;-79
2022/11/09 19:43:30;;;;;;;0.75;0.50;;;13.50;99.90;;;;;;4871552;29;20048;-79
2022/11/09 19:45:57;;;;;;;0.70;0.52;;;13.50;99.90;;;;;;4868111;29;20040;-79
2022/11/09 19:48:24;;;;;;;1.58;0.70;;;13.50;99.90;;;;;;4867156;29;20049;-78
2022/11/09 19:50:51;;;;;;;1.45;0.70;;;13.50;99.90;;;;;;4867452;29;20048;-79
2022/11/09 19:53:18;;;;;;;1.48;0.90;;;13.50;99.90;;;;;;4871569;29;20046;-79
2022/11/09 19:55:45;;;;;;;1.40;0.80;;;13.50;99.90;;;;;;4872348;29;20045;-79
2022/11/09 19:58:12;;;;;;;2.47;1.00;;;13.50;99.90;;;;;;4862547;29;20123;-78
2022/11/09 20:00:39;;;;;;;2.60;0.60;;;13.50;99.90;;;;;;4848620;29;20105;-79
2022/11/09 20:03:05;;;;;;;1.70;0.60;;;13.50;99.90;;;;;;4867097;29;20072;-78
2022/11/09 20:05:34;;;;;;;8.07;1.80;;;13.50;99.90;;;;;;4872988;29;20048;-77
